createdAt,value
2018-07-16T00:00:22.908Z,35.50
2018-07-16T00:02:56.596Z,35.20
2018-07-16T00:05:29.652Z,35.30
2018-07-16T00:08:03.156Z,35.40
2018-07-16T00:10:36.207Z,35.60
2018-07-16T00:13:09.249Z,35.90
2018-07-16T00:15:42.838Z,35.90
2018-07-16T00:18:15.898Z,35.80
2018-07-16T00:20:48.936Z,35.70
2018-07-16T00:23:22.504Z,35.50
2018-07-16T00:25:55.993Z,35.50
2018-07-16T00:28:29.048Z,35.60
2018-07-16T00:31:02.135Z,35.50
2018-07-16T00:33:36.027Z,35.50
2018-07-16T00:36:10.128Z,35.50
2018-07-16T00:38:43.404Z,35.60
2018-07-16T00:41:17.048Z,35.40
2018-07-16T00:43:49.956Z,35.30
2018-07-16T00:46:24.433Z,35.30
2018-07-16T00:48:57.635Z,35.30
2018-07-16T00:51:31.203Z,35.30
2018-07-16T00:54:05.349Z,35.30
2018-07-16T00:56:38.408Z,35.30
2018-07-16T00:59:11.333Z,35.30
2018-07-16T01:01:44.342Z,35.60
2018-07-16T01:04:17.595Z,35.90
2018-07-16T01:06:52.578Z,36.30
2018-07-16T01:09:25.501Z,36.60
2018-07-16T01:11:59.425Z,36.90
2018-07-16T01:14:33.327Z,37.40
2018-07-16T01:17:06.488Z,37.60
2018-07-16T01:19:41.542Z,37.70
2018-07-16T01:22:14.734Z,37.80
2018-07-16T01:24:49.402Z,38.00
2018-07-16T01:27:22.852Z,37.90
2018-07-16T01:29:56.012Z,38.00
2018-07-16T01:32:29.941Z,37.80
2018-07-16T01:35:03.051Z,37.70
2018-07-16T01:37:36.905Z,37.40
2018-07-16T01:40:10.063Z,37.50
2018-07-16T01:42:43.234Z,37.60
2018-07-16T01:45:17.184Z,37.40
2018-07-16T01:47:50.331Z,37.10
2018-07-16T01:50:23.472Z,37.00
2018-07-16T01:52:56.696Z,37.00
2018-07-16T01:55:29.835Z,36.80
2018-07-16T01:58:03.065Z,36.50
2018-07-16T02:00:36.463Z,36.60
2018-07-16T02:03:10.150Z,36.50
2018-07-16T02:05:44.507Z,36.40
2018-07-16T02:08:17.824Z,36.60
2018-07-16T02:10:51.205Z,36.70
2018-07-16T02:13:25.441Z,36.70
2018-07-16T02:15:58.580Z,36.60
2018-07-16T02:18:32.486Z,36.30
2018-07-16T02:21:05.561Z,36.20
2018-07-16T02:23:38.794Z,36.20
2018-07-16T02:26:12.011Z,36.50
2018-07-16T02:28:45.166Z,36.40
2018-07-16T02:31:18.259Z,36.40
2018-07-16T02:33:51.310Z,35.80
2018-07-16T02:36:24.429Z,34.80
2018-07-16T02:38:57.588Z,33.90
2018-07-16T02:41:30.562Z,32.90
2018-07-16T02:44:03.682Z,32.10
2018-07-16T02:46:36.615Z,31.50
2018-07-16T02:49:09.676Z,31.00
2018-07-16T02:51:42.708Z,30.50
2018-07-16T02:54:15.795Z,30.20
2018-07-16T02:56:50.499Z,29.90
2018-07-16T02:59:23.805Z,29.70
2018-07-16T03:01:57.025Z,29.40
2018-07-16T03:04:29.990Z,29.20
2018-07-16T03:07:03.067Z,29.10
2018-07-16T03:09:36.208Z,28.90
2018-07-16T03:12:09.673Z,28.70
2018-07-16T03:14:42.838Z,28.50
2018-07-16T03:17:15.906Z,28.40
2018-07-16T03:19:49.961Z,28.30
2018-07-16T03:22:23.079Z,28.10
2018-07-16T03:24:56.943Z,28.00
2018-07-16T03:27:31.042Z,27.90
2018-07-16T03:30:04.696Z,27.70
2018-07-16T03:32:37.843Z,27.60
2018-07-16T03:35:11.723Z,27.40
2018-07-16T03:37:44.715Z,27.40
2018-07-16T03:40:17.765Z,27.30
2018-07-16T03:42:51.356Z,27.20
2018-07-16T03:45:24.426Z,27.10
2018-07-16T03:47:57.493Z,27.00
2018-07-16T03:50:30.559Z,26.90
2018-07-16T03:53:03.647Z,26.90
2018-07-16T03:55:36.686Z,26.80
2018-07-16T03:58:09.647Z,26.70
2018-07-16T04:00:42.544Z,26.60
2018-07-16T04:03:15.674Z,26.60
2018-07-16T04:05:49.554Z,26.60
2018-07-16T04:08:22.622Z,26.40
2018-07-16T04:10:55.682Z,26.30
2018-07-16T04:13:28.719Z,26.10
2018-07-16T04:16:01.672Z,26.00
2018-07-16T04:18:34.883Z,25.80
2018-07-16T04:21:09.585Z,25.60
2018-07-16T04:23:43.542Z,25.40
2018-07-16T04:26:16.716Z,25.30
2018-07-16T04:28:51.781Z,25.10
2018-07-16T04:31:24.996Z,25.00
2018-07-16T04:33:58.154Z,24.80
2018-07-16T04:36:31.281Z,24.70
2018-07-16T04:39:06.750Z,24.60
2018-07-16T04:41:39.755Z,24.40
2018-07-16T04:44:12.876Z,24.30
2018-07-16T04:46:46.781Z,24.30
2018-07-16T04:49:21.053Z,24.20
2018-07-16T04:51:54.239Z,24.10
2018-07-16T04:54:27.548Z,24.00
2018-07-16T04:57:01.228Z,23.90
2018-07-16T04:59:34.437Z,23.70
2018-07-16T05:02:08.187Z,23.60
2018-07-16T05:04:41.864Z,23.60
2018-07-16T05:07:15.651Z,23.50
2018-07-16T05:09:50.269Z,23.40
2018-07-16T05:12:23.331Z,23.40
2018-07-16T05:14:56.507Z,23.30
2018-07-16T05:17:30.202Z,23.20
2018-07-16T05:20:03.264Z,23.20
2018-07-16T05:22:36.359Z,23.10
2018-07-16T05:25:09.814Z,23.00
2018-07-16T05:27:43.276Z,22.90
2018-07-16T05:30:17.104Z,22.80
2018-07-16T05:32:50.274Z,22.80
2018-07-16T05:35:23.622Z,22.70
2018-07-16T05:37:57.361Z,22.70
2018-07-16T05:40:30.434Z,22.60
2018-07-16T05:43:03.445Z,22.50
2018-07-16T05:45:37.455Z,22.40
2018-07-16T05:48:10.474Z,22.40
2018-07-16T05:50:44.276Z,22.30
2018-07-16T05:53:17.368Z,22.30
2018-07-16T05:55:50.619Z,22.20
2018-07-16T05:58:24.050Z,22.10
2018-07-16T06:00:57.660Z,22.10
2018-07-16T06:03:30.881Z,22.10
2018-07-16T06:06:04.038Z,22.10
2018-07-16T06:08:37.726Z,22.00
2018-07-16T06:11:12.040Z,22.00
2018-07-16T06:13:45.118Z,21.80
2018-07-16T06:16:19.380Z,21.80
2018-07-16T06:18:52.418Z,21.80
2018-07-16T06:21:25.599Z,21.70
2018-07-16T06:23:58.701Z,21.60
2018-07-16T06:26:31.661Z,21.50
2018-07-16T06:29:04.574Z,21.50
2018-07-16T06:31:38.324Z,21.50
2018-07-16T06:34:11.294Z,21.50
2018-07-16T06:36:44.193Z,21.50
2018-07-16T06:39:17.294Z,21.40
2018-07-16T06:41:50.234Z,21.30
2018-07-16T06:44:23.972Z,21.20
2018-07-16T06:46:57.747Z,21.10
2018-07-16T06:49:35.270Z,21.10
2018-07-16T06:52:13.140Z,21.10
2018-07-16T06:54:47.122Z,21.00
2018-07-16T06:57:20.284Z,21.00
2018-07-16T06:59:53.256Z,20.90
2018-07-16T07:02:26.302Z,20.90
2018-07-16T07:05:01.933Z,20.80
2018-07-16T07:07:35.114Z,20.80
2018-07-16T07:10:08.692Z,20.80
2018-07-16T07:12:41.869Z,20.80
2018-07-16T07:15:14.910Z,20.70
2018-07-16T07:17:48.423Z,20.70
2018-07-16T07:20:21.460Z,20.70
2018-07-16T07:22:54.371Z,20.60
2018-07-16T07:25:27.475Z,20.50
2018-07-16T07:28:00.625Z,20.40
2018-07-16T07:30:33.642Z,20.40
2018-07-16T07:33:06.636Z,20.30
2018-07-16T07:35:39.743Z,20.30
2018-07-16T07:38:12.802Z,20.20
2018-07-16T07:40:45.835Z,20.20
2018-07-16T07:43:18.724Z,20.20
2018-07-16T14:37:10.785Z,17.60
2018-07-16T14:39:44.981Z,17.70
2018-07-16T14:42:22.183Z,17.80
2018-07-16T14:44:55.666Z,18.00
2018-07-16T14:47:33.498Z,18.60
2018-07-16T14:50:06.960Z,19.60
2018-07-16T14:52:41.293Z,20.60
2018-07-16T14:55:14.711Z,21.40
2018-07-16T14:57:48.168Z,22.10
2018-07-16T15:00:22.132Z,22.60
2018-07-16T15:02:55.534Z,23.00
2018-07-16T15:05:29.124Z,23.20
2018-07-16T15:08:02.663Z,23.50
2018-07-16T15:10:36.808Z,23.70
2018-07-16T15:13:10.403Z,23.90
2018-07-16T15:15:43.684Z,23.60
2018-07-16T15:18:18.331Z,23.90
2018-07-16T15:20:51.975Z,23.90
2018-07-16T15:23:25.448Z,23.70
2018-07-16T15:25:59.478Z,23.90
2018-07-16T15:28:34.318Z,23.50
2018-07-16T15:31:08.570Z,23.10
2018-07-16T15:33:42.525Z,23.80
2018-07-16T15:36:17.056Z,23.70
2018-07-16T15:38:50.574Z,23.30
2018-07-16T15:41:23.951Z,22.80
2018-07-16T15:43:58.197Z,22.40
2018-07-16T15:46:31.604Z,22.30
2018-07-16T15:49:04.952Z,22.10
2018-07-16T15:51:38.402Z,22.00
2018-07-16T15:54:11.959Z,22.00
2018-07-16T15:56:45.402Z,22.00
2018-07-16T15:59:19.618Z,22.00
2018-07-16T16:01:53.724Z,21.90
2018-07-16T16:04:27.934Z,22.00
2018-07-16T16:07:01.729Z,22.10
2018-07-16T16:09:35.064Z,22.10
2018-07-16T16:12:09.382Z,21.90
2018-07-16T16:14:42.763Z,21.90
2018-07-16T16:17:16.044Z,21.90
2018-07-16T16:19:49.501Z,22.00
2018-07-16T16:22:22.976Z,21.80
2018-07-16T16:24:56.271Z,21.90
2018-07-16T16:27:29.562Z,21.90
2018-07-16T16:30:04.222Z,22.00
2018-07-16T16:32:38.860Z,22.10
2018-07-16T16:35:13.548Z,22.20
2018-07-16T16:37:46.773Z,22.30
2018-07-16T16:40:20.045Z,22.40
2018-07-16T16:42:53.181Z,22.50
2018-07-16T16:45:26.479Z,22.50
2018-07-16T16:47:59.730Z,22.50
2018-07-16T16:50:33.056Z,22.50
2018-07-16T16:53:06.489Z,22.60
2018-07-16T16:55:39.853Z,22.50
2018-07-16T16:58:13.067Z,22.60
2018-07-16T17:00:49.571Z,22.80
2018-07-16T17:03:22.837Z,22.90
2018-07-16T17:06:06.762Z,23.10
2018-07-16T17:08:39.863Z,23.30
2018-07-16T17:11:13.066Z,23.30
2018-07-16T17:13:46.174Z,23.40
2018-07-16T17:16:19.255Z,23.40
2018-07-16T17:18:52.523Z,23.60
2018-07-16T17:21:25.603Z,23.70
2018-07-16T17:23:58.976Z,23.80
2018-07-16T17:26:32.177Z,23.90
2018-07-16T17:29:05.411Z,23.90
2018-07-16T17:31:38.590Z,23.80
2018-07-16T17:34:11.812Z,23.80
2018-07-16T17:36:45.028Z,23.80
2018-07-16T17:39:18.217Z,23.90
2018-07-16T17:41:51.459Z,24.00
2018-07-16T17:44:24.581Z,24.30
2018-07-16T17:46:57.702Z,24.30
2018-07-16T17:49:30.801Z,24.40
2018-07-16T17:52:03.995Z,24.40
2018-07-16T17:54:37.177Z,24.60
2018-07-16T17:57:10.650Z,24.70
2018-07-16T17:59:43.935Z,24.70
2018-07-16T18:02:17.120Z,25.00
2018-07-16T18:04:50.359Z,25.00
2018-07-16T18:07:24.234Z,25.00
2018-07-16T18:09:57.452Z,25.10
2018-07-16T18:12:30.817Z,25.20
2018-07-16T18:15:04.232Z,25.30
2018-07-16T18:17:37.548Z,25.40
2018-07-16T18:20:11.059Z,25.20
2018-07-16T18:22:44.539Z,25.20
2018-07-16T18:25:17.545Z,25.40
2018-07-16T18:27:50.789Z,25.40
2018-07-16T18:30:25.036Z,25.50
2018-07-16T18:32:58.442Z,25.50
2018-07-16T18:35:31.711Z,25.70
2018-07-16T18:38:05.020Z,25.70
2018-07-16T18:40:38.419Z,25.60
2018-07-16T18:43:12.047Z,25.70
2018-07-16T18:45:45.096Z,25.80
2018-07-16T18:48:18.411Z,26.00
2018-07-16T18:50:52.008Z,26.20
2018-07-16T18:53:25.306Z,26.40
2018-07-16T18:55:58.411Z,26.40
2018-07-16T18:58:32.384Z,26.50
2018-07-16T19:01:05.713Z,26.40
2018-07-16T19:03:38.925Z,26.50
2018-07-16T19:06:12.279Z,26.30
2018-07-16T19:08:45.512Z,26.20
2018-07-16T19:11:18.648Z,26.40
2018-07-16T19:13:51.858Z,26.50
2018-07-16T19:16:25.020Z,26.50
2018-07-16T19:18:58.399Z,26.50
2018-07-16T19:21:31.525Z,26.70
2018-07-16T19:24:05.696Z,26.90
2018-07-16T19:26:39.003Z,27.00
2018-07-16T19:29:12.311Z,27.10
2018-07-16T19:31:46.534Z,27.20
2018-07-16T19:34:19.789Z,27.10
2018-07-16T19:36:53.068Z,27.30
2018-07-16T19:39:26.254Z,26.90
2018-07-16T19:41:59.771Z,27.10
2018-07-16T19:44:32.876Z,27.30
2018-07-16T19:47:06.024Z,27.50
2018-07-16T19:49:39.341Z,27.40
2018-07-16T19:52:12.555Z,27.30
2018-07-16T19:54:45.606Z,27.50
2018-07-16T19:57:18.807Z,27.60
2018-07-16T19:59:51.893Z,27.70
2018-07-16T20:02:25.028Z,27.60
2018-07-16T20:04:58.255Z,27.60
2018-07-16T20:07:31.425Z,27.70
2018-07-16T20:10:04.832Z,27.30
2018-07-16T20:12:39.435Z,27.70
2018-07-16T20:15:12.999Z,28.00
2018-07-16T20:17:46.604Z,28.20
2018-07-16T20:20:19.829Z,28.30
2018-07-16T20:22:53.021Z,28.50
2018-07-16T20:25:26.466Z,28.80
2018-07-16T20:27:59.593Z,28.90
2018-07-16T20:30:32.685Z,29.10
2018-07-16T20:33:05.901Z,29.20
2018-07-16T20:35:39.019Z,29.40
2018-07-16T20:38:12.338Z,29.60
2018-07-16T20:40:45.495Z,29.70
2018-07-16T20:43:18.911Z,29.80
2018-07-16T20:45:52.156Z,29.90
2018-07-16T20:48:25.070Z,29.90
2018-07-16T20:50:58.128Z,30.00
2018-07-16T20:53:31.020Z,30.10
2018-07-16T20:56:04.326Z,30.20
2018-07-16T20:58:37.538Z,30.20
2018-07-16T21:01:10.912Z,30.20
2018-07-16T21:03:43.935Z,29.90
2018-07-16T21:06:17.027Z,30.10
2018-07-16T21:08:50.095Z,30.20
2018-07-16T21:11:23.253Z,30.50
2018-07-16T21:13:56.266Z,30.60
2018-07-16T21:16:29.437Z,30.60
2018-07-16T21:19:02.679Z,30.60
2018-07-16T21:21:35.831Z,30.50
2018-07-16T21:24:09.586Z,30.40
2018-07-16T21:26:42.587Z,30.20
2018-07-16T21:29:17.001Z,30.40
2018-07-16T21:31:50.538Z,30.10
2018-07-16T21:34:23.604Z,30.30
2018-07-16T21:36:56.629Z,30.60
2018-07-16T21:39:31.063Z,30.60
2018-07-16T21:42:05.190Z,30.80
2018-07-16T21:44:40.015Z,30.90
2018-07-16T21:47:13.025Z,31.00
2018-07-16T21:49:46.055Z,30.90
2018-07-16T21:52:18.938Z,30.60
2018-07-16T21:54:52.942Z,30.50
2018-07-16T21:57:26.194Z,30.80
2018-07-16T21:59:59.278Z,31.10
2018-07-16T22:02:33.047Z,31.20
2018-07-16T22:05:06.155Z,31.30
2018-07-16T22:07:40.024Z,31.30
2018-07-16T22:10:13.442Z,31.30
2018-07-16T22:12:46.620Z,31.60
2018-07-16T22:15:26.970Z,31.70
2018-07-16T22:18:00.696Z,32.00
2018-07-16T22:20:33.700Z,32.30
2018-07-16T22:23:06.763Z,32.40
2018-07-16T22:25:39.818Z,32.40
2018-07-16T22:28:13.013Z,32.50
2018-07-16T22:30:46.158Z,32.50
2018-07-16T22:33:19.291Z,32.60
2018-07-16T22:35:52.636Z,32.10
2018-07-16T22:38:25.778Z,32.20
2018-07-16T22:40:58.667Z,32.40
2018-07-16T22:43:31.797Z,32.40
2018-07-16T22:46:04.871Z,32.70
2018-07-16T22:48:37.887Z,32.90
2018-07-16T22:51:10.830Z,33.10
2018-07-16T22:53:43.959Z,33.10
2018-07-16T22:56:18.193Z,33.10
2018-07-16T22:58:51.242Z,33.20
2018-07-16T23:01:24.319Z,33.30
2018-07-16T23:03:58.101Z,32.60
2018-07-16T23:06:31.071Z,32.90
2018-07-16T23:09:04.416Z,33.20
2018-07-16T23:11:37.653Z,33.30
2018-07-16T23:14:10.652Z,33.30
2018-07-16T23:16:43.634Z,33.20
2018-07-16T23:19:16.621Z,32.90
2018-07-16T23:21:49.501Z,32.90
2018-07-16T23:24:23.247Z,32.90
2018-07-16T23:26:56.298Z,32.90
2018-07-16T23:29:29.343Z,32.50
2018-07-16T23:32:02.497Z,32.30
2018-07-16T23:34:35.587Z,32.60
2018-07-16T23:37:08.540Z,32.40
2018-07-16T23:39:41.564Z,32.20
2018-07-16T23:42:14.665Z,32.50
2018-07-16T23:44:47.757Z,32.70
2018-07-16T23:47:20.723Z,33.00
2018-07-16T23:49:53.915Z,33.00
2018-07-16T23:52:27.131Z,33.50
2018-07-16T23:55:00.271Z,33.80
2018-07-16T23:57:33.612Z,33.20
